sensor_id;sensor_type;location;lat;lon;timestamp;P1;durP1;ratioP1;P2;durP2;ratioP2
77802;SDS011;66993;48.256;16.422;2023-12-22T00:02:01;2.0;;;1.0;;
77802;SDS011;66993;48.256;16.422;2023-12-22T00:07:03;1.3;;;1.1;;
77802;SDS011;66993;48.256;16.422;2023-12-22T00:12:04;2.5;;;1.2;;
77802;SDS011;66993;48.256;16.422;2023-12-22T00:17:05;1.9;;;1.1;;
77802;SDS011;66993;48.256;16.422;2023-12-22T00:22:06;1.9;;;1.6;;
77802;SDS011;66993;48.256;16.422;2023-12-22T00:27:09;2.4;;;1.1;;
77802;SDS011;66993;48.256;16.422;2023-12-22T00:32:09;2.8;;;1.1;;
77802;SDS011;66993;48.256;16.422;2023-12-22T00:37:12;2.2;;;1.3;;
77802;SDS011;66993;48.256;16.422;2023-12-22T00:42:11;2.8;;;1.4;;
77802;SDS011;66993;48.256;16.422;2023-12-22T00:47:12;2.1;;;1.6;;
77802;SDS011;66993;48.256;16.422;2023-12-22T00:52:14;3.8;;;1.5;;
77802;SDS011;66993;48.256;16.422;2023-12-22T00:57:18;1.5;;;1.2;;
77802;SDS011;66993;48.256;16.422;2023-12-22T01:02:16;3.0;;;1.2;;
77802;SDS011;66993;48.256;16.422;2023-12-22T01:07:17;3.3;;;1.4;;
77802;SDS011;66993;48.256;16.422;2023-12-22T01:12:19;2.0;;;1.3;;
77802;SDS011;66993;48.256;16.422;2023-12-22T01:17:20;2.3;;;1.4;;
77802;SDS011;66993;48.256;16.422;2023-12-22T01:22:24;3.4;;;1.6;;
77802;SDS011;66993;48.256;16.422;2023-12-22T01:27:22;3.8;;;1.9;;
77802;SDS011;66993;48.256;16.422;2023-12-22T01:32:24;2.5;;;1.3;;
77802;SDS011;66993;48.256;16.422;2023-12-22T01:37:25;3.9;;;1.5;;
77802;SDS011;66993;48.256;16.422;2023-12-22T01:42:26;3.4;;;1.8;;
77802;SDS011;66993;48.256;16.422;2023-12-22T01:47:28;2.1;;;1.3;;
77802;SDS011;66993;48.256;16.422;2023-12-22T01:52:29;2.3;;;1.3;;
77802;SDS011;66993;48.256;16.422;2023-12-22T01:57:30;3.3;;;1.4;;
77802;SDS011;66993;48.256;16.422;2023-12-22T02:02:35;2.8;;;1.7;;
77802;SDS011;66993;48.256;16.422;2023-12-22T02:07:33;2.7;;;1.4;;
77802;SDS011;66993;48.256;16.422;2023-12-22T02:12:34;3.0;;;1.6;;
77802;SDS011;66993;48.256;16.422;2023-12-22T02:17:43;4.0;;;1.7;;
77802;SDS011;66993;48.256;16.422;2023-12-22T02:22:37;4.8;;;1.6;;
77802;SDS011;66993;48.256;16.422;2023-12-22T02:27:39;3.2;;;1.5;;
77802;SDS011;66993;48.256;16.422;2023-12-22T02:32:42;3.1;;;1.6;;
77802;SDS011;66993;48.256;16.422;2023-12-22T02:37:40;2.4;;;1.5;;
77802;SDS011;66993;48.256;16.422;2023-12-22T02:42:43;3.3;;;1.4;;
77802;SDS011;66993;48.256;16.422;2023-12-22T02:47:43;3.9;;;1.4;;
77802;SDS011;66993;48.256;16.422;2023-12-22T02:52:44;4.2;;;1.6;;
77802;SDS011;66993;48.256;16.422;2023-12-22T02:57:45;5.1;;;1.9;;
77802;SDS011;66993;48.256;16.422;2023-12-22T03:02:49;5.0;;;1.7;;
77802;SDS011;66993;48.256;16.422;2023-12-22T03:07:48;5.0;;;1.8;;
77802;SDS011;66993;48.256;16.422;2023-12-22T03:12:49;3.3;;;1.6;;
77802;SDS011;66993;48.256;16.422;2023-12-22T03:17:51;5.9;;;1.8;;
77802;SDS011;66993;48.256;16.422;2023-12-22T03:22:52;6.2;;;1.8;;
77802;SDS011;66993;48.256;16.422;2023-12-22T03:27:53;5.9;;;1.9;;
77802;SDS011;66993;48.256;16.422;2023-12-22T03:32:54;6.3;;;1.9;;
77802;SDS011;66993;48.256;16.422;2023-12-22T03:37:56;6.0;;;1.8;;
77802;SDS011;66993;48.256;16.422;2023-12-22T03:42:57;7.0;;;2.2;;
77802;SDS011;66993;48.256;16.422;2023-12-22T03:47:58;7.0;;;1.9;;
77802;SDS011;66993;48.256;16.422;2023-12-22T03:52:59;6.2;;;1.9;;
77802;SDS011;66993;48.256;16.422;2023-12-22T03:58:00;6.0;;;1.7;;
77802;SDS011;66993;48.256;16.422;2023-12-22T04:03:02;5.7;;;1.8;;
77802;SDS011;66993;48.256;16.422;2023-12-22T04:08:03;3.2;;;1.9;;
77802;SDS011;66993;48.256;16.422;2023-12-22T04:13:04;5.6;;;1.8;;
77802;SDS011;66993;48.256;16.422;2023-12-22T04:18:05;6.8;;;2.1;;
77802;SDS011;66993;48.256;16.422;2023-12-22T04:23:07;3.8;;;1.3;;
77802;SDS011;66993;48.256;16.422;2023-12-22T04:28:08;5.5;;;1.6;;
77802;SDS011;66993;48.256;16.422;2023-12-22T04:33:09;4.0;;;2.1;;
77802;SDS011;66993;48.256;16.422;2023-12-22T04:38:10;4.3;;;1.8;;
77802;SDS011;66993;48.256;16.422;2023-12-22T04:43:12;5.2;;;1.7;;
77802;SDS011;66993;48.256;16.422;2023-12-22T04:48:13;3.0;;;1.4;;
77802;SDS011;66993;48.256;16.422;2023-12-22T04:53:14;5.4;;;1.5;;
77802;SDS011;66993;48.256;16.422;2023-12-22T04:58:16;2.7;;;1.5;;
77802;SDS011;66993;48.256;16.422;2023-12-22T05:03:17;3.2;;;1.6;;
77802;SDS011;66993;48.256;16.422;2023-12-22T05:08:18;2.6;;;1.4;;
77802;SDS011;66993;48.256;16.422;2023-12-22T05:13:20;5.3;;;2.0;;
77802;SDS011;66993;48.256;16.422;2023-12-22T05:18:21;5.2;;;1.7;;
77802;SDS011;66993;48.256;16.422;2023-12-22T05:23:22;3.5;;;1.7;;
77802;SDS011;66993;48.256;16.422;2023-12-22T05:28:24;4.4;;;1.5;;
77802;SDS011;66993;48.256;16.422;2023-12-22T05:33:25;5.8;;;1.6;;
77802;SDS011;66993;48.256;16.422;2023-12-22T05:38:26;5.5;;;1.6;;
77802;SDS011;66993;48.256;16.422;2023-12-22T05:43:28;4.8;;;1.6;;
77802;SDS011;66993;48.256;16.422;2023-12-22T05:48:29;5.0;;;1.8;;
77802;SDS011;66993;48.256;16.422;2023-12-22T05:53:30;4.7;;;2.0;;
77802;SDS011;66993;48.256;16.422;2023-12-22T05:58:31;4.6;;;1.7;;
77802;SDS011;66993;48.256;16.422;2023-12-22T06:03:33;6.2;;;1.9;;
77802;SDS011;66993;48.256;16.422;2023-12-22T06:08:34;6.5;;;1.9;;
77802;SDS011;66993;48.256;16.422;2023-12-22T06:13:35;5.6;;;1.9;;
77802;SDS011;66993;48.256;16.422;2023-12-22T06:18:36;5.4;;;2.1;;
77802;SDS011;66993;48.256;16.422;2023-12-22T06:23:39;4.7;;;1.5;;
77802;SDS011;66993;48.256;16.422;2023-12-22T06:28:39;6.6;;;1.9;;
77802;SDS011;66993;48.256;16.422;2023-12-22T06:33:40;4.5;;;1.9;;
77802;SDS011;66993;48.256;16.422;2023-12-22T06:38:42;2.3;;;1.8;;
77802;SDS011;66993;48.256;16.422;2023-12-22T06:43:44;5.5;;;2.3;;
77802;SDS011;66993;48.256;16.422;2023-12-22T06:48:44;5.0;;;2.3;;
77802;SDS011;66993;48.256;16.422;2023-12-22T06:53:48;3.6;;;1.7;;
77802;SDS011;66993;48.256;16.422;2023-12-22T06:58:47;4.0;;;2.1;;
77802;SDS011;66993;48.256;16.422;2023-12-22T07:03:49;2.3;;;1.7;;
77802;SDS011;66993;48.256;16.422;2023-12-22T07:13:51;5.5;;;1.8;;
77802;SDS011;66993;48.256;16.422;2023-12-22T07:18:52;3.6;;;1.7;;
77802;SDS011;66993;48.256;16.422;2023-12-22T07:23:53;4.2;;;1.8;;
77802;SDS011;66993;48.256;16.422;2023-12-22T07:28:55;3.3;;;1.7;;
77802;SDS011;66993;48.256;16.422;2023-12-22T07:33:56;4.0;;;1.9;;
77802;SDS011;66993;48.256;16.422;2023-12-22T07:38:57;3.4;;;2.1;;
77802;SDS011;66993;48.256;16.422;2023-12-22T07:43:59;3.1;;;1.8;;
77802;SDS011;66993;48.256;16.422;2023-12-22T07:49:00;2.3;;;1.6;;
77802;SDS011;66993;48.256;16.422;2023-12-22T07:54:01;3.6;;;1.8;;
77802;SDS011;66993;48.256;16.422;2023-12-22T07:59:02;3.4;;;2.0;;
77802;SDS011;66993;48.256;16.422;2023-12-22T08:04:04;4.2;;;1.8;;
77802;SDS011;66993;48.256;16.422;2023-12-22T08:09:05;4.6;;;2.7;;
77802;SDS011;66993;48.256;16.422;2023-12-22T08:14:06;3.2;;;1.8;;
77802;SDS011;66993;48.256;16.422;2023-12-22T08:19:07;3.0;;;1.9;;
77802;SDS011;66993;48.256;16.422;2023-12-22T08:24:09;4.3;;;1.7;;
77802;SDS011;66993;48.256;16.422;2023-12-22T08:29:10;3.4;;;1.5;;
77802;SDS011;66993;48.256;16.422;2023-12-22T08:34:11;3.4;;;1.9;;
77802;SDS011;66993;48.256;16.422;2023-12-22T08:39:12;2.0;;;1.5;;
77802;SDS011;66993;48.256;16.422;2023-12-22T08:44:14;1.9;;;1.5;;
77802;SDS011;66993;48.256;16.422;2023-12-22T08:49:15;2.4;;;1.5;;
77802;SDS011;66993;48.256;16.422;2023-12-22T08:54:17;3.4;;;1.9;;
77802;SDS011;66993;48.256;16.422;2023-12-22T08:59:17;4.4;;;1.7;;
77802;SDS011;66993;48.256;16.422;2023-12-22T09:04:19;2.5;;;1.7;;
77802;SDS011;66993;48.256;16.422;2023-12-22T09:09:20;3.1;;;2.3;;
77802;SDS011;66993;48.256;16.422;2023-12-22T09:14:22;3.5;;;2.1;;
77802;SDS011;66993;48.256;16.422;2023-12-22T09:19:23;5.2;;;1.7;;
77802;SDS011;66993;48.256;16.422;2023-12-22T09:24:24;3.1;;;1.5;;
77802;SDS011;66993;48.256;16.422;2023-12-22T09:29:25;2.5;;;1.5;;
77802;SDS011;66993;48.256;16.422;2023-12-22T09:34:27;3.8;;;1.4;;
77802;SDS011;66993;48.256;16.422;2023-12-22T09:39:28;3.3;;;1.6;;
77802;SDS011;66993;48.256;16.422;2023-12-22T09:44:31;2.2;;;1.2;;
77802;SDS011;66993;48.256;16.422;2023-12-22T09:49:31;2.7;;;1.3;;
77802;SDS011;66993;48.256;16.422;2023-12-22T09:54:32;2.9;;;1.5;;
77802;SDS011;66993;48.256;16.422;2023-12-22T09:59:33;5.2;;;2.0;;
77802;SDS011;66993;48.256;16.422;2023-12-22T10:04:34;1.6;;;1.4;;
77802;SDS011;66993;48.256;16.422;2023-12-22T10:09:36;2.7;;;1.4;;
77802;SDS011;66993;48.256;16.422;2023-12-22T10:14:37;1.9;;;1.3;;
77802;SDS011;66993;48.256;16.422;2023-12-22T10:19:38;3.9;;;1.7;;
77802;SDS011;66993;48.256;16.422;2023-12-22T10:24:40;4.3;;;2.0;;
77802;SDS011;66993;48.256;16.422;2023-12-22T10:29:41;3.3;;;1.6;;
77802;SDS011;66993;48.256;16.422;2023-12-22T10:34:42;3.6;;;1.8;;
77802;SDS011;66993;48.256;16.422;2023-12-22T10:39:43;2.7;;;1.2;;
77802;SDS011;66993;48.256;16.422;2023-12-22T10:44:47;2.2;;;1.4;;
77802;SDS011;66993;48.256;16.422;2023-12-22T10:49:46;3.4;;;1.4;;
77802;SDS011;66993;48.256;16.422;2023-12-22T10:54:48;2.1;;;1.5;;
77802;SDS011;66993;48.256;16.422;2023-12-22T10:59:48;2.9;;;1.6;;
77802;SDS011;66993;48.256;16.422;2023-12-22T11:04:52;2.1;;;1.2;;
77802;SDS011;66993;48.256;16.422;2023-12-22T11:09:51;2.1;;;1.2;;
77802;SDS011;66993;48.256;16.422;2023-12-22T11:14:53;2.0;;;1.3;;
77802;SDS011;66993;48.256;16.422;2023-12-22T11:19:54;2.8;;;1.7;;
77802;SDS011;66993;48.256;16.422;2023-12-22T11:24:57;2.4;;;1.4;;
77802;SDS011;66993;48.256;16.422;2023-12-22T11:29:56;2.7;;;1.8;;
77802;SDS011;66993;48.256;16.422;2023-12-22T11:34:58;1.7;;;1.3;;
77802;SDS011;66993;48.256;16.422;2023-12-22T11:39:59;2.2;;;1.2;;
77802;SDS011;66993;48.256;16.422;2023-12-22T11:45:00;2.3;;;1.4;;
77802;SDS011;66993;48.256;16.422;2023-12-22T11:50:02;2.5;;;1.3;;
77802;SDS011;66993;48.256;16.422;2023-12-22T11:55:04;2.0;;;1.1;;
77802;SDS011;66993;48.256;16.422;2023-12-22T12:00:06;1.9;;;1.2;;
77802;SDS011;66993;48.256;16.422;2023-12-22T12:05:06;2.1;;;1.5;;
77802;SDS011;66993;48.256;16.422;2023-12-22T12:10:07;2.1;;;1.5;;
77802;SDS011;66993;48.256;16.422;2023-12-22T12:15:10;1.6;;;1.4;;
77802;SDS011;66993;48.256;16.422;2023-12-22T12:20:10;3.2;;;1.5;;
77802;SDS011;66993;48.256;16.422;2023-12-22T12:25:11;1.8;;;1.4;;
77802;SDS011;66993;48.256;16.422;2023-12-22T12:30:13;2.8;;;1.7;;
77802;SDS011;66993;48.256;16.422;2023-12-22T12:35:13;2.3;;;1.6;;
77802;SDS011;66993;48.256;16.422;2023-12-22T12:40:14;2.4;;;1.5;;
77802;SDS011;66993;48.256;16.422;2023-12-22T12:45:21;2.4;;;1.4;;
77802;SDS011;66993;48.256;16.422;2023-12-22T12:50:21;2.2;;;1.3;;
77802;SDS011;66993;48.256;16.422;2023-12-22T12:55:19;3.7;;;1.7;;
77802;SDS011;66993;48.256;16.422;2023-12-22T13:00:24;2.5;;;1.7;;
77802;SDS011;66993;48.256;16.422;2023-12-22T13:05:21;2.9;;;1.5;;
77802;SDS011;66993;48.256;16.422;2023-12-22T13:10:22;3.0;;;1.5;;
77802;SDS011;66993;48.256;16.422;2023-12-22T13:15:26;2.6;;;1.3;;
77802;SDS011;66993;48.256;16.422;2023-12-22T13:20:25;3.4;;;1.9;;
77802;SDS011;66993;48.256;16.422;2023-12-22T13:25:26;3.2;;;1.7;;
77802;SDS011;66993;48.256;16.422;2023-12-22T13:30:32;3.0;;;1.7;;
77802;SDS011;66993;48.256;16.422;2023-12-22T13:35:28;4.2;;;1.5;;
77802;SDS011;66993;48.256;16.422;2023-12-22T13:40:30;3.1;;;1.7;;
77802;SDS011;66993;48.256;16.422;2023-12-22T13:45:31;3.1;;;1.8;;
77802;SDS011;66993;48.256;16.422;2023-12-22T13:50:32;2.9;;;1.9;;
77802;SDS011;66993;48.256;16.422;2023-12-22T13:55:34;5.5;;;1.7;;
77802;SDS011;66993;48.256;16.422;2023-12-22T14:00:35;2.4;;;1.6;;
77802;SDS011;66993;48.256;16.422;2023-12-22T14:05:36;2.7;;;1.4;;
77802;SDS011;66993;48.256;16.422;2023-12-22T14:10:37;4.7;;;1.8;;
77802;SDS011;66993;48.256;16.422;2023-12-22T14:15:39;3.4;;;1.7;;
77802;SDS011;66993;48.256;16.422;2023-12-22T14:20:40;3.1;;;1.3;;
77802;SDS011;66993;48.256;16.422;2023-12-22T14:25:41;2.7;;;1.3;;
77802;SDS011;66993;48.256;16.422;2023-12-22T14:30:42;4.0;;;1.7;;
77802;SDS011;66993;48.256;16.422;2023-12-22T14:35:45;3.7;;;1.7;;
77802;SDS011;66993;48.256;16.422;2023-12-22T14:40:45;3.1;;;2.1;;
77802;SDS011;66993;48.256;16.422;2023-12-22T14:45:48;4.4;;;1.5;;
77802;SDS011;66993;48.256;16.422;2023-12-22T14:50:48;4.2;;;1.4;;
77802;SDS011;66993;48.256;16.422;2023-12-22T14:55:49;3.0;;;1.4;;
77802;SDS011;66993;48.256;16.422;2023-12-22T15:00:50;2.3;;;1.6;;
77802;SDS011;66993;48.256;16.422;2023-12-22T15:05:52;4.5;;;1.5;;
77802;SDS011;66993;48.256;16.422;2023-12-22T15:10:53;3.0;;;1.4;;
77802;SDS011;66993;48.256;16.422;2023-12-22T15:15:54;2.1;;;1.5;;
77802;SDS011;66993;48.256;16.422;2023-12-22T15:20:55;2.1;;;1.5;;
77802;SDS011;66993;48.256;16.422;2023-12-22T15:25:59;2.6;;;1.7;;
77802;SDS011;66993;48.256;16.422;2023-12-22T15:30:58;1.8;;;1.6;;
77802;SDS011;66993;48.256;16.422;2023-12-22T15:35:59;3.3;;;1.7;;
77802;SDS011;66993;48.256;16.422;2023-12-22T15:41:00;2.3;;;1.7;;
77802;SDS011;66993;48.256;16.422;2023-12-22T15:46:03;2.8;;;1.6;;
77802;SDS011;66993;48.256;16.422;2023-12-22T15:51:06;3.2;;;1.9;;
77802;SDS011;66993;48.256;16.422;2023-12-22T15:56:05;3.2;;;2.1;;
77802;SDS011;66993;48.256;16.422;2023-12-22T16:01:05;2.0;;;1.6;;
77802;SDS011;66993;48.256;16.422;2023-12-22T16:06:08;2.8;;;1.9;;
77802;SDS011;66993;48.256;16.422;2023-12-22T16:11:08;2.0;;;1.3;;
77802;SDS011;66993;48.256;16.422;2023-12-22T16:16:09;1.7;;;1.5;;
77802;SDS011;66993;48.256;16.422;2023-12-22T16:21:10;2.0;;;1.3;;
77802;SDS011;66993;48.256;16.422;2023-12-22T16:26:12;1.5;;;1.2;;
77802;SDS011;66993;48.256;16.422;2023-12-22T16:31:13;1.2;;;1.1;;
77802;SDS011;66993;48.256;16.422;2023-12-22T16:36:14;2.6;;;1.4;;
77802;SDS011;66993;48.256;16.422;2023-12-22T16:41:15;2.1;;;1.5;;
77802;SDS011;66993;48.256;16.422;2023-12-22T16:46:17;2.6;;;1.2;;
77802;SDS011;66993;48.256;16.422;2023-12-22T16:51:18;2.0;;;1.5;;
77802;SDS011;66993;48.256;16.422;2023-12-22T16:56:20;3.1;;;1.5;;
77802;SDS011;66993;48.256;16.422;2023-12-22T17:01:20;1.5;;;1.2;;
77802;SDS011;66993;48.256;16.422;2023-12-22T17:06:22;2.2;;;1.6;;
77802;SDS011;66993;48.256;16.422;2023-12-22T17:11:23;1.5;;;1.3;;
77802;SDS011;66993;48.256;16.422;2023-12-22T17:16:24;2.3;;;1.2;;
77802;SDS011;66993;48.256;16.422;2023-12-22T17:21:25;2.2;;;1.6;;
77802;SDS011;66993;48.256;16.422;2023-12-22T17:26:27;2.3;;;1.1;;
77802;SDS011;66993;48.256;16.422;2023-12-22T17:31:28;3.0;;;1.6;;
77802;SDS011;66993;48.256;16.422;2023-12-22T17:36:29;3.0;;;1.9;;
77802;SDS011;66993;48.256;16.422;2023-12-22T17:41:30;2.3;;;1.6;;
77802;SDS011;66993;48.256;16.422;2023-12-22T17:46:32;2.3;;;1.7;;
77802;SDS011;66993;48.256;16.422;2023-12-22T17:51:33;1.6;;;1.1;;
77802;SDS011;66993;48.256;16.422;2023-12-22T17:56:34;2.7;;;1.7;;
77802;SDS011;66993;48.256;16.422;2023-12-22T18:01:39;3.0;;;1.5;;
77802;SDS011;66993;48.256;16.422;2023-12-22T18:06:39;2.3;;;1.6;;
77802;SDS011;66993;48.256;16.422;2023-12-22T18:11:39;2.3;;;1.9;;
77802;SDS011;66993;48.256;16.422;2023-12-22T18:16:41;2.6;;;1.9;;
77802;SDS011;66993;48.256;16.422;2023-12-22T18:21:40;2.4;;;1.6;;
77802;SDS011;66993;48.256;16.422;2023-12-22T18:26:41;1.9;;;1.7;;
77802;SDS011;66993;48.256;16.422;2023-12-22T18:31:43;2.0;;;1.6;;
77802;SDS011;66993;48.256;16.422;2023-12-22T18:36:44;2.7;;;1.7;;
77802;SDS011;66993;48.256;16.422;2023-12-22T18:41:45;2.1;;;1.5;;
77802;SDS011;66993;48.256;16.422;2023-12-22T18:46:47;1.7;;;1.6;;
77802;SDS011;66993;48.256;16.422;2023-12-22T18:51:48;2.3;;;1.6;;
77802;SDS011;66993;48.256;16.422;2023-12-22T18:56:49;2.1;;;1.5;;
77802;SDS011;66993;48.256;16.422;2023-12-22T19:01:50;1.8;;;1.3;;
77802;SDS011;66993;48.256;16.422;2023-12-22T19:06:57;3.6;;;2.1;;
77802;SDS011;66993;48.256;16.422;2023-12-22T19:11:53;2.2;;;1.5;;
77802;SDS011;66993;48.256;16.422;2023-12-22T19:16:54;3.4;;;2.3;;
77802;SDS011;66993;48.256;16.422;2023-12-22T19:21:57;2.9;;;1.9;;
77802;SDS011;66993;48.256;16.422;2023-12-22T19:26:57;2.7;;;1.5;;
77802;SDS011;66993;48.256;16.422;2023-12-22T19:31:58;2.4;;;1.5;;
77802;SDS011;66993;48.256;16.422;2023-12-22T19:36:59;2.4;;;1.9;;
77802;SDS011;66993;48.256;16.422;2023-12-22T19:42:00;3.3;;;2.3;;
77802;SDS011;66993;48.256;16.422;2023-12-22T19:47:02;2.7;;;1.7;;
77802;SDS011;66993;48.256;16.422;2023-12-22T19:52:03;3.3;;;1.6;;
77802;SDS011;66993;48.256;16.422;2023-12-22T19:57:04;2.5;;;1.9;;
77802;SDS011;66993;48.256;16.422;2023-12-22T20:02:06;3.0;;;2.2;;
77802;SDS011;66993;48.256;16.422;2023-12-22T20:07:07;3.4;;;1.9;;
77802;SDS011;66993;48.256;16.422;2023-12-22T20:12:11;4.5;;;2.6;;
77802;SDS011;66993;48.256;16.422;2023-12-22T20:17:09;3.8;;;2.6;;
77802;SDS011;66993;48.256;16.422;2023-12-22T20:22:10;4.0;;;2.4;;
77802;SDS011;66993;48.256;16.422;2023-12-22T20:27:12;4.0;;;2.5;;
77802;SDS011;66993;48.256;16.422;2023-12-22T20:32:13;4.5;;;2.7;;
77802;SDS011;66993;48.256;16.422;2023-12-22T20:37:14;3.5;;;2.5;;
77802;SDS011;66993;48.256;16.422;2023-12-22T20:42:15;3.8;;;2.3;;
77802;SDS011;66993;48.256;16.422;2023-12-22T20:47:17;3.9;;;2.7;;
77802;SDS011;66993;48.256;16.422;2023-12-22T20:52:18;3.6;;;3.2;;
77802;SDS011;66993;48.256;16.422;2023-12-22T20:57:19;3.8;;;3.0;;
77802;SDS011;66993;48.256;16.422;2023-12-22T21:02:21;4.2;;;2.5;;
77802;SDS011;66993;48.256;16.422;2023-12-22T21:07:22;4.3;;;2.1;;
77802;SDS011;66993;48.256;16.422;2023-12-22T21:12:23;4.3;;;2.9;;
77802;SDS011;66993;48.256;16.422;2023-12-22T21:17:26;4.8;;;3.5;;
77802;SDS011;66993;48.256;16.422;2023-12-22T21:22:26;7.9;;;5.0;;
77802;SDS011;66993;48.256;16.422;2023-12-22T21:27:27;8.3;;;4.5;;
77802;SDS011;66993;48.256;16.422;2023-12-22T21:32:28;9.2;;;5.1;;
77802;SDS011;66993;48.256;16.422;2023-12-22T21:37:30;5.8;;;3.9;;
77802;SDS011;66993;48.256;16.422;2023-12-22T21:42:31;7.5;;;3.6;;
77802;SDS011;66993;48.256;16.422;2023-12-22T21:47:32;3.3;;;2.0;;
77802;SDS011;66993;48.256;16.422;2023-12-22T21:52:33;2.6;;;1.6;;
77802;SDS011;66993;48.256;16.422;2023-12-22T21:57:35;1.7;;;1.6;;
77802;SDS011;66993;48.256;16.422;2023-12-22T22:02:36;1.5;;;1.2;;
77802;SDS011;66993;48.256;16.422;2023-12-22T22:07:41;1.8;;;1.4;;
77802;SDS011;66993;48.256;16.422;2023-12-22T22:12:38;2.2;;;1.3;;
77802;SDS011;66993;48.256;16.422;2023-12-22T22:17:40;1.3;;;1.1;;
77802;SDS011;66993;48.256;16.422;2023-12-22T22:22:41;2.3;;;1.3;;
77802;SDS011;66993;48.256;16.422;2023-12-22T22:27:42;1.6;;;1.3;;
77802;SDS011;66993;48.256;16.422;2023-12-22T22:32:44;1.7;;;1.3;;
77802;SDS011;66993;48.256;16.422;2023-12-22T22:37:44;2.6;;;1.5;;
77802;SDS011;66993;48.256;16.422;2023-12-22T22:42:49;2.7;;;1.4;;
77802;SDS011;66993;48.256;16.422;2023-12-22T22:47:47;2.2;;;1.5;;
77802;SDS011;66993;48.256;16.422;2023-12-22T22:52:48;1.5;;;1.1;;
77802;SDS011;66993;48.256;16.422;2023-12-22T22:57:50;2.6;;;1.7;;
77802;SDS011;66993;48.256;16.422;2023-12-22T23:02:51;1.6;;;1.5;;
77802;SDS011;66993;48.256;16.422;2023-12-22T23:07:54;1.4;;;1.3;;
77802;SDS011;66993;48.256;16.422;2023-12-22T23:12:53;1.3;;;1.2;;
77802;SDS011;66993;48.256;16.422;2023-12-22T23:17:55;2.4;;;1.6;;
77802;SDS011;66993;48.256;16.422;2023-12-22T23:22:56;2.3;;;1.6;;
77802;SDS011;66993;48.256;16.422;2023-12-22T23:27:57;2.3;;;1.9;;
77802;SDS011;66993;48.256;16.422;2023-12-22T23:32:58;2.2;;;2.0;;
77802;SDS011;66993;48.256;16.422;2023-12-22T23:38:00;2.2;;;1.6;;
77802;SDS011;66993;48.256;16.422;2023-12-22T23:43:01;2.3;;;1.8;;
77802;SDS011;66993;48.256;16.422;2023-12-22T23:48:04;2.0;;;1.8;;
77802;SDS011;66993;48.256;16.422;2023-12-22T23:53:04;1.9;;;1.5;;
77802;SDS011;66993;48.256;16.422;2023-12-22T23:58:05;1.7;;;1.6;;
